sensor_id;sensor_type;location;lat;lon;timestamp;temperature;humidity
698;DHT22;331;48.414;9.938;2022-12-04T00:00:39;2.60;99.90
698;DHT22;331;48.414;9.938;2022-12-04T00:03:06;2.50;99.90
698;DHT22;331;48.414;9.938;2022-12-04T00:05:46;2.50;99.90
698;DHT22;331;48.414;9.938;2022-12-04T00:08:14;2.50;99.90
698;DHT22;331;48.414;9.938;2022-12-04T00:10:42;2.40;99.90
698;DHT22;331;48.414;9.938;2022-12-04T00:13:12;2.40;99.90
698;DHT22;331;48.414;9.938;2022-12-04T00:15:45;2.50;99.90
698;DHT22;331;48.414;9.938;2022-12-04T00:18:20;2.50;99.90
698;DHT22;331;48.414;9.938;2022-12-04T00:21:05;2.50;99.90
698;DHT22;331;48.414;9.938;2022-12-04T00:23:40;2.50;99.90
698;DHT22;331;48.414;9.938;2022-12-04T00:26:11;2.40;99.90
698;DHT22;331;48.414;9.938;2022-12-04T00:28:42;2.50;99.90
698;DHT22;331;48.414;9.938;2022-12-04T00:31:11;2.40;99.90
698;DHT22;331;48.414;9.938;2022-12-04T00:33:47;2.50;99.90
698;DHT22;331;48.414;9.938;2022-12-04T00:36:32;2.40;99.90
698;DHT22;331;48.414;9.938;2022-12-04T00:39:01;2.40;99.90
698;DHT22;331;48.414;9.938;2022-12-04T00:41:43;2.40;99.90
698;DHT22;331;48.414;9.938;2022-12-04T00:44:25;2.30;99.90
698;DHT22;331;48.414;9.938;2022-12-04T00:46:54;2.50;99.90
698;DHT22;331;48.414;9.938;2022-12-04T00:49:22;2.40;99.90
698;DHT22;331;48.414;9.938;2022-12-04T00:51:49;2.40;99.90
698;DHT22;331;48.414;9.938;2022-12-04T00:54:17;2.40;99.90
698;DHT22;331;48.414;9.938;2022-12-04T00:56:55;2.40;99.90
698;DHT22;331;48.414;9.938;2022-12-04T00:59:25;2.40;99.90
698;DHT22;331;48.414;9.938;2022-12-04T01:01:52;2.40;99.90
698;DHT22;331;48.414;9.938;2022-12-04T01:04:28;2.40;99.90
698;DHT22;331;48.414;9.938;2022-12-04T01:06:59;2.40;99.90
698;DHT22;331;48.414;9.938;2022-12-04T01:09:44;2.40;99.90
698;DHT22;331;48.414;9.938;2022-12-04T01:12:26;2.40;99.90
698;DHT22;331;48.414;9.938;2022-12-04T01:14:54;2.40;99.90
698;DHT22;331;48.414;9.938;2022-12-04T01:17:20;2.40;99.90
698;DHT22;331;48.414;9.938;2022-12-04T01:19:48;2.40;99.90
698;DHT22;331;48.414;9.938;2022-12-04T01:22:15;2.40;99.90
698;DHT22;331;48.414;9.938;2022-12-04T01:24:53;2.40;99.90
698;DHT22;331;48.414;9.938;2022-12-04T01:27:20;2.40;99.90
698;DHT22;331;48.414;9.938;2022-12-04T01:29:50;2.40;99.90
698;DHT22;331;48.414;9.938;2022-12-04T01:32:21;2.40;99.90
698;DHT22;331;48.414;9.938;2022-12-04T01:34:52;2.40;99.90
698;DHT22;331;48.414;9.938;2022-12-04T01:37:19;2.40;99.90
698;DHT22;331;48.414;9.938;2022-12-04T01:39:54;2.40;99.90
698;DHT22;331;48.414;9.938;2022-12-04T01:42:22;2.40;99.90
698;DHT22;331;48.414;9.938;2022-12-04T01:47:51;2.40;99.90
698;DHT22;331;48.414;9.938;2022-12-04T01:50:20;2.40;99.90
698;DHT22;331;48.414;9.938;2022-12-04T01:52:47;2.40;99.90
698;DHT22;331;48.414;9.938;2022-12-04T01:55:16;2.40;99.90
698;DHT22;331;48.414;9.938;2022-12-04T01:57:44;2.40;99.90
698;DHT22;331;48.414;9.938;2022-12-04T02:00:16;2.40;99.90
698;DHT22;331;48.414;9.938;2022-12-04T02:02:45;2.40;99.90
698;DHT22;331;48.414;9.938;2022-12-04T02:05:18;2.40;99.90
698;DHT22;331;48.414;9.938;2022-12-04T02:07:46;2.40;99.90
698;DHT22;331;48.414;9.938;2022-12-04T02:10:20;2.40;99.90
698;DHT22;331;48.414;9.938;2022-12-04T02:12:54;2.30;99.90
698;DHT22;331;48.414;9.938;2022-12-04T02:15:29;2.40;99.90
698;DHT22;331;48.414;9.938;2022-12-04T02:18:05;2.40;99.90
698;DHT22;331;48.414;9.938;2022-12-04T02:20:38;2.40;99.90
698;DHT22;331;48.414;9.938;2022-12-04T02:23:25;2.30;99.90
698;DHT22;331;48.414;9.938;2022-12-04T02:26:04;2.40;99.90
698;DHT22;331;48.414;9.938;2022-12-04T02:31:31;2.30;99.90
698;DHT22;331;48.414;9.938;2022-12-04T02:37:06;2.30;99.90
698;DHT22;331;48.414;9.938;2022-12-04T02:39:40;2.30;99.90
698;DHT22;331;48.414;9.938;2022-12-04T02:42:12;2.30;99.90
698;DHT22;331;48.414;9.938;2022-12-04T02:44:41;2.30;99.90
698;DHT22;331;48.414;9.938;2022-12-04T02:47:18;2.30;99.90
698;DHT22;331;48.414;9.938;2022-12-04T02:49:47;2.30;99.90
698;DHT22;331;48.414;9.938;2022-12-04T02:52:27;2.30;99.90
698;DHT22;331;48.414;9.938;2022-12-04T02:54:55;2.30;99.90
698;DHT22;331;48.414;9.938;2022-12-04T02:57:30;2.30;99.90
698;DHT22;331;48.414;9.938;2022-12-04T02:59:58;2.30;99.90
698;DHT22;331;48.414;9.938;2022-12-04T03:02:34;2.30;99.90
698;DHT22;331;48.414;9.938;2022-12-04T03:05:14;2.30;99.90
698;DHT22;331;48.414;9.938;2022-12-04T03:07:44;2.40;99.90
698;DHT22;331;48.414;9.938;2022-12-04T03:10:27;2.30;99.90
698;DHT22;331;48.414;9.938;2022-12-04T03:13:00;2.30;99.90
698;DHT22;331;48.414;9.938;2022-12-04T03:15:30;2.30;99.90
698;DHT22;331;48.414;9.938;2022-12-04T03:18:01;2.30;99.90
698;DHT22;331;48.414;9.938;2022-12-04T03:20:31;2.30;99.90
698;DHT22;331;48.414;9.938;2022-12-04T03:23:01;2.30;99.90
698;DHT22;331;48.414;9.938;2022-12-04T03:25:47;2.30;99.90
698;DHT22;331;48.414;9.938;2022-12-04T03:28:18;2.30;99.90
698;DHT22;331;48.414;9.938;2022-12-04T03:30:58;2.30;99.90
698;DHT22;331;48.414;9.938;2022-12-04T03:33:30;2.30;99.90
698;DHT22;331;48.414;9.938;2022-12-04T03:36:05;2.30;99.90
698;DHT22;331;48.414;9.938;2022-12-04T03:38:40;2.30;99.90
698;DHT22;331;48.414;9.938;2022-12-04T03:41:11;2.30;99.90
698;DHT22;331;48.414;9.938;2022-12-04T03:43:56;2.30;99.90
698;DHT22;331;48.414;9.938;2022-12-04T03:46:46;2.30;99.90
698;DHT22;331;48.414;9.938;2022-12-04T03:49:28;2.30;99.90
698;DHT22;331;48.414;9.938;2022-12-04T03:52:07;2.30;99.90
698;DHT22;331;48.414;9.938;2022-12-04T03:54:42;2.30;99.90
698;DHT22;331;48.414;9.938;2022-12-04T03:57:11;2.30;99.90
698;DHT22;331;48.414;9.938;2022-12-04T03:59:57;2.30;99.90
698;DHT22;331;48.414;9.938;2022-12-04T04:02:27;2.30;99.90
698;DHT22;331;48.414;9.938;2022-12-04T04:05:05;2.30;99.90
698;DHT22;331;48.414;9.938;2022-12-04T04:07:50;2.30;99.90
698;DHT22;331;48.414;9.938;2022-12-04T04:10:26;2.30;99.90
698;DHT22;331;48.414;9.938;2022-12-04T04:12:58;2.30;99.90
698;DHT22;331;48.414;9.938;2022-12-04T04:15:45;2.30;99.90
698;DHT22;331;48.414;9.938;2022-12-04T04:18:34;2.20;99.90
698;DHT22;331;48.414;9.938;2022-12-04T04:21:23;2.30;99.90
698;DHT22;331;48.414;9.938;2022-12-04T04:24:19;2.30;99.90
698;DHT22;331;48.414;9.938;2022-12-04T04:27:01;2.30;99.90
698;DHT22;331;48.414;9.938;2022-12-04T04:29:30;2.30;99.90
698;DHT22;331;48.414;9.938;2022-12-04T04:32:13;2.20;99.90
698;DHT22;331;48.414;9.938;2022-12-04T04:35:12;2.30;99.90
698;DHT22;331;48.414;9.938;2022-12-04T04:37:51;2.30;99.90
698;DHT22;331;48.414;9.938;2022-12-04T04:40:21;2.30;99.90
698;DHT22;331;48.414;9.938;2022-12-04T04:42:55;2.20;99.90
698;DHT22;331;48.414;9.938;2022-12-04T04:45:32;2.30;99.90
698;DHT22;331;48.414;9.938;2022-12-04T04:48:01;2.20;99.90
698;DHT22;331;48.414;9.938;2022-12-04T04:50:32;2.20;99.90
698;DHT22;331;48.414;9.938;2022-12-04T04:53:04;2.20;99.90
698;DHT22;331;48.414;9.938;2022-12-04T04:55:43;2.20;99.90
698;DHT22;331;48.414;9.938;2022-12-04T04:58:11;2.20;99.90
698;DHT22;331;48.414;9.938;2022-12-04T05:00:40;2.20;99.90
698;DHT22;331;48.414;9.938;2022-12-04T05:03:12;2.20;99.90
698;DHT22;331;48.414;9.938;2022-12-04T05:08:26;2.30;99.90
698;DHT22;331;48.414;9.938;2022-12-04T05:10:56;2.30;99.90
698;DHT22;331;48.414;9.938;2022-12-04T05:13:23;2.30;99.90
698;DHT22;331;48.414;9.938;2022-12-04T05:15:56;2.30;99.90
698;DHT22;331;48.414;9.938;2022-12-04T05:18:23;2.20;99.90
698;DHT22;331;48.414;9.938;2022-12-04T05:20:50;2.30;99.90
698;DHT22;331;48.414;9.938;2022-12-04T05:23:16;2.30;99.90
698;DHT22;331;48.414;9.938;2022-12-04T05:25:50;2.30;99.90
698;DHT22;331;48.414;9.938;2022-12-04T05:28:33;2.30;99.90
698;DHT22;331;48.414;9.938;2022-12-04T05:31:20;2.30;99.90
698;DHT22;331;48.414;9.938;2022-12-04T05:34:36;2.30;99.90
698;DHT22;331;48.414;9.938;2022-12-04T05:37:02;2.30;99.90
698;DHT22;331;48.414;9.938;2022-12-04T05:39:30;2.30;99.90
698;DHT22;331;48.414;9.938;2022-12-04T05:42:07;2.30;99.90
698;DHT22;331;48.414;9.938;2022-12-04T05:44:39;2.30;99.90
698;DHT22;331;48.414;9.938;2022-12-04T05:47:06;2.30;99.90
698;DHT22;331;48.414;9.938;2022-12-04T05:49:36;2.30;99.90
698;DHT22;331;48.414;9.938;2022-12-04T05:52:16;2.30;99.90
698;DHT22;331;48.414;9.938;2022-12-04T05:54:58;2.30;99.90
698;DHT22;331;48.414;9.938;2022-12-04T05:57:26;2.30;99.90
698;DHT22;331;48.414;9.938;2022-12-04T05:59:53;2.30;99.90
698;DHT22;331;48.414;9.938;2022-12-04T06:02:28;2.30;99.90
698;DHT22;331;48.414;9.938;2022-12-04T06:04:58;2.30;99.90
698;DHT22;331;48.414;9.938;2022-12-04T06:07:26;2.30;99.90
698;DHT22;331;48.414;9.938;2022-12-04T06:10:06;2.30;99.90
698;DHT22;331;48.414;9.938;2022-12-04T06:12:43;2.30;99.90
698;DHT22;331;48.414;9.938;2022-12-04T06:15:10;2.30;99.90
698;DHT22;331;48.414;9.938;2022-12-04T06:17:39;2.30;99.90
698;DHT22;331;48.414;9.938;2022-12-04T06:20:14;2.40;99.90
698;DHT22;331;48.414;9.938;2022-12-04T06:22:41;2.30;99.90
698;DHT22;331;48.414;9.938;2022-12-04T06:25:10;2.30;99.90
698;DHT22;331;48.414;9.938;2022-12-04T06:27:39;2.40;99.90
698;DHT22;331;48.414;9.938;2022-12-04T06:30:22;2.30;99.90
698;DHT22;331;48.414;9.938;2022-12-04T06:32:58;2.30;99.90
698;DHT22;331;48.414;9.938;2022-12-04T06:35:31;2.30;99.90
698;DHT22;331;48.414;9.938;2022-12-04T06:37:58;2.30;99.90
698;DHT22;331;48.414;9.938;2022-12-04T06:40:34;2.30;99.90
698;DHT22;331;48.414;9.938;2022-12-04T06:43:04;2.30;99.90
698;DHT22;331;48.414;9.938;2022-12-04T06:45:36;2.30;99.90
698;DHT22;331;48.414;9.938;2022-12-04T06:48:04;2.40;99.90
698;DHT22;331;48.414;9.938;2022-12-04T06:50:34;2.30;99.90
698;DHT22;331;48.414;9.938;2022-12-04T06:53:05;2.30;99.90
698;DHT22;331;48.414;9.938;2022-12-04T06:55:32;2.30;99.90
698;DHT22;331;48.414;9.938;2022-12-04T06:58:06;2.30;99.90
698;DHT22;331;48.414;9.938;2022-12-04T07:00:35;2.30;99.90
698;DHT22;331;48.414;9.938;2022-12-04T07:03:04;2.30;99.90
698;DHT22;331;48.414;9.938;2022-12-04T07:05:31;2.30;99.90
698;DHT22;331;48.414;9.938;2022-12-04T07:08:00;2.30;99.90
698;DHT22;331;48.414;9.938;2022-12-04T07:10:34;2.30;99.90
698;DHT22;331;48.414;9.938;2022-12-04T07:13:06;2.30;99.90
698;DHT22;331;48.414;9.938;2022-12-04T07:15:44;2.40;99.90
698;DHT22;331;48.414;9.938;2022-12-04T07:18:16;2.30;99.90
698;DHT22;331;48.414;9.938;2022-12-04T07:20:46;2.30;99.90
698;DHT22;331;48.414;9.938;2022-12-04T07:23:20;2.30;99.90
698;DHT22;331;48.414;9.938;2022-12-04T07:25:52;2.40;99.90
698;DHT22;331;48.414;9.938;2022-12-04T07:28:20;2.30;99.90
698;DHT22;331;48.414;9.938;2022-12-04T07:30:51;2.30;99.90
698;DHT22;331;48.414;9.938;2022-12-04T07:33:18;2.30;99.90
698;DHT22;331;48.414;9.938;2022-12-04T07:35:53;2.30;99.90
698;DHT22;331;48.414;9.938;2022-12-04T07:38:20;2.30;99.90
698;DHT22;331;48.414;9.938;2022-12-04T07:41:01;2.40;99.90
698;DHT22;331;48.414;9.938;2022-12-04T07:43:33;2.40;99.90
698;DHT22;331;48.414;9.938;2022-12-04T07:46:06;2.30;99.90
698;DHT22;331;48.414;9.938;2022-12-04T07:48:35;2.40;99.90
698;DHT22;331;48.414;9.938;2022-12-04T07:51:07;2.40;99.90
698;DHT22;331;48.414;9.938;2022-12-04T07:53:46;2.40;99.90
698;DHT22;331;48.414;9.938;2022-12-04T07:56:15;2.40;99.90
698;DHT22;331;48.414;9.938;2022-12-04T07:58:53;2.40;99.90
698;DHT22;331;48.414;9.938;2022-12-04T08:01:32;2.40;99.90
698;DHT22;331;48.414;9.938;2022-12-04T08:04:02;2.40;99.90
698;DHT22;331;48.414;9.938;2022-12-04T08:06:35;2.40;99.90
698;DHT22;331;48.414;9.938;2022-12-04T08:09:10;2.40;99.90
698;DHT22;331;48.414;9.938;2022-12-04T08:11:38;2.40;99.90
698;DHT22;331;48.414;9.938;2022-12-04T08:14:10;2.40;99.90
698;DHT22;331;48.414;9.938;2022-12-04T08:16:44;2.40;99.90
698;DHT22;331;48.414;9.938;2022-12-04T08:19:32;2.40;99.90
698;DHT22;331;48.414;9.938;2022-12-04T08:22:04;2.40;99.90
698;DHT22;331;48.414;9.938;2022-12-04T08:24:31;2.50;99.90
698;DHT22;331;48.414;9.938;2022-12-04T08:26:58;2.40;99.90
698;DHT22;331;48.414;9.938;2022-12-04T08:29:25;2.40;99.90
698;DHT22;331;48.414;9.938;2022-12-04T08:31:55;2.40;99.90
698;DHT22;331;48.414;9.938;2022-12-04T08:34:22;2.50;99.90
698;DHT22;331;48.414;9.938;2022-12-04T08:36:59;2.40;99.90
698;DHT22;331;48.414;9.938;2022-12-04T08:39:25;2.40;99.90
698;DHT22;331;48.414;9.938;2022-12-04T08:41:52;2.40;99.90
698;DHT22;331;48.414;9.938;2022-12-04T08:44:21;2.40;99.90
698;DHT22;331;48.414;9.938;2022-12-04T08:46:48;2.50;99.90
698;DHT22;331;48.414;9.938;2022-12-04T08:49:28;2.50;99.90
698;DHT22;331;48.414;9.938;2022-12-04T08:52:00;2.30;99.90
698;DHT22;331;48.414;9.938;2022-12-04T08:54:30;2.50;99.90
698;DHT22;331;48.414;9.938;2022-12-04T08:59:43;2.50;99.90
698;DHT22;331;48.414;9.938;2022-12-04T09:02:14;2.50;99.90
698;DHT22;331;48.414;9.938;2022-12-04T09:04:59;2.50;99.90
698;DHT22;331;48.414;9.938;2022-12-04T09:07:37;2.50;99.90
698;DHT22;331;48.414;9.938;2022-12-04T09:10:07;2.50;99.90
698;DHT22;331;48.414;9.938;2022-12-04T09:12:37;2.50;99.90
698;DHT22;331;48.414;9.938;2022-12-04T09:15:07;2.50;99.90
698;DHT22;331;48.414;9.938;2022-12-04T09:17:34;2.50;99.90
698;DHT22;331;48.414;9.938;2022-12-04T09:20:07;2.50;99.90
698;DHT22;331;48.414;9.938;2022-12-04T09:22:35;2.50;99.90
698;DHT22;331;48.414;9.938;2022-12-04T09:25:07;2.50;99.90
698;DHT22;331;48.414;9.938;2022-12-04T09:27:43;2.40;99.90
698;DHT22;331;48.414;9.938;2022-12-04T09:30:16;2.40;99.90
698;DHT22;331;48.414;9.938;2022-12-04T09:32:48;2.40;99.90
698;DHT22;331;48.414;9.938;2022-12-04T09:35:17;2.40;99.90
698;DHT22;331;48.414;9.938;2022-12-04T09:37:46;2.50;99.90
698;DHT22;331;48.414;9.938;2022-12-04T09:40:24;2.50;99.90
698;DHT22;331;48.414;9.938;2022-12-04T09:42:56;2.50;99.90
698;DHT22;331;48.414;9.938;2022-12-04T09:45:39;2.60;99.90
698;DHT22;331;48.414;9.938;2022-12-04T09:48:17;2.50;99.90
698;DHT22;331;48.414;9.938;2022-12-04T09:50:50;2.50;99.90
698;DHT22;331;48.414;9.938;2022-12-04T09:53:28;2.50;99.90
698;DHT22;331;48.414;9.938;2022-12-04T09:55:59;2.50;99.90
698;DHT22;331;48.414;9.938;2022-12-04T09:58:34;2.40;99.90
698;DHT22;331;48.414;9.938;2022-12-04T10:01:17;2.60;99.90
698;DHT22;331;48.414;9.938;2022-12-04T10:03:48;2.50;99.90
698;DHT22;331;48.414;9.938;2022-12-04T10:06:17;2.50;99.90
698;DHT22;331;48.414;9.938;2022-12-04T10:08:48;2.50;99.90
698;DHT22;331;48.414;9.938;2022-12-04T10:11:20;2.50;99.90
698;DHT22;331;48.414;9.938;2022-12-04T10:14:04;2.50;99.90
698;DHT22;331;48.414;9.938;2022-12-04T10:16:52;2.50;99.90
698;DHT22;331;48.414;9.938;2022-12-04T10:19:27;2.60;99.90
698;DHT22;331;48.414;9.938;2022-12-04T10:24:50;2.60;99.90
698;DHT22;331;48.414;9.938;2022-12-04T10:27:38;2.60;99.90
698;DHT22;331;48.414;9.938;2022-12-04T10:30:13;2.60;99.90
698;DHT22;331;48.414;9.938;2022-12-04T10:32:52;2.60;99.90
698;DHT22;331;48.414;9.938;2022-12-04T10:35:34;2.60;99.90
698;DHT22;331;48.414;9.938;2022-12-04T10:38:22;2.60;99.90
698;DHT22;331;48.414;9.938;2022-12-04T10:40:56;2.60;99.90
698;DHT22;331;48.414;9.938;2022-12-04T10:43:33;2.60;99.90
698;DHT22;331;48.414;9.938;2022-12-04T10:46:04;2.60;99.90
698;DHT22;331;48.414;9.938;2022-12-04T10:48:38;2.60;99.90
698;DHT22;331;48.414;9.938;2022-12-04T10:51:22;2.60;99.90
698;DHT22;331;48.414;9.938;2022-12-04T10:53:49;2.60;99.90
698;DHT22;331;48.414;9.938;2022-12-04T10:56:21;2.60;99.90
698;DHT22;331;48.414;9.938;2022-12-04T10:58:59;2.60;99.90
698;DHT22;331;48.414;9.938;2022-12-04T11:01:26;2.60;99.90
698;DHT22;331;48.414;9.938;2022-12-04T11:04:41;2.60;99.90
698;DHT22;331;48.414;9.938;2022-12-04T11:09:29;2.60;99.90
698;DHT22;331;48.414;9.938;2022-12-04T11:12:07;2.60;99.90
698;DHT22;331;48.414;9.938;2022-12-04T11:15:01;2.60;99.90
698;DHT22;331;48.414;9.938;2022-12-04T11:17:46;2.60;99.90
698;DHT22;331;48.414;9.938;2022-12-04T11:20:14;2.60;99.90
698;DHT22;331;48.414;9.938;2022-12-04T11:22:47;2.50;99.90
698;DHT22;331;48.414;9.938;2022-12-04T11:25:19;2.50;99.90
698;DHT22;331;48.414;9.938;2022-12-04T11:28:04;2.60;99.90
698;DHT22;331;48.414;9.938;2022-12-04T11:30:34;2.60;99.90
698;DHT22;331;48.414;9.938;2022-12-04T11:33:28;2.60;99.90
698;DHT22;331;48.414;9.938;2022-12-04T11:36:16;2.60;99.90
698;DHT22;331;48.414;9.938;2022-12-04T11:38:49;2.60;99.90
698;DHT22;331;48.414;9.938;2022-12-04T11:41:23;2.60;99.90
698;DHT22;331;48.414;9.938;2022-12-04T11:43:58;2.50;99.90
698;DHT22;331;48.414;9.938;2022-12-04T11:46:34;2.60;99.90
698;DHT22;331;48.414;9.938;2022-12-04T11:51:47;2.60;99.90
698;DHT22;331;48.414;9.938;2022-12-04T11:54:20;2.60;99.90
698;DHT22;331;48.414;9.938;2022-12-04T11:56:58;2.60;99.90
698;DHT22;331;48.414;9.938;2022-12-04T11:59:41;2.60;99.90
698;DHT22;331;48.414;9.938;2022-12-04T12:02:33;2.60;99.90
698;DHT22;331;48.414;9.938;2022-12-04T12:07:53;2.60;99.90
698;DHT22;331;48.414;9.938;2022-12-04T12:10:35;2.60;99.90
698;DHT22;331;48.414;9.938;2022-12-04T12:13:11;2.60;99.90
698;DHT22;331;48.414;9.938;2022-12-04T12:15:55;2.60;99.90
698;DHT22;331;48.414;9.938;2022-12-04T12:18:53;2.50;99.90
698;DHT22;331;48.414;9.938;2022-12-04T12:21:29;2.60;99.90
698;DHT22;331;48.414;9.938;2022-12-04T12:24:21;2.60;99.90
698;DHT22;331;48.414;9.938;2022-12-04T12:26:54;2.60;99.90
698;DHT22;331;48.414;9.938;2022-12-04T12:29:33;2.60;99.90
698;DHT22;331;48.414;9.938;2022-12-04T12:32:28;2.60;99.90
698;DHT22;331;48.414;9.938;2022-12-04T12:35:02;2.60;99.90
698;DHT22;331;48.414;9.938;2022-12-04T12:37:38;2.50;99.90
698;DHT22;331;48.414;9.938;2022-12-04T12:40:22;2.60;99.90
698;DHT22;331;48.414;9.938;2022-12-04T12:42:56;2.60;99.90
698;DHT22;331;48.414;9.938;2022-12-04T12:45:32;2.60;99.90
698;DHT22;331;48.414;9.938;2022-12-04T12:48:09;2.50;99.90
698;DHT22;331;48.414;9.938;2022-12-04T12:50:39;2.60;99.90
698;DHT22;331;48.414;9.938;2022-12-04T12:53:18;2.70;99.90
698;DHT22;331;48.414;9.938;2022-12-04T12:55:48;2.60;99.90
698;DHT22;331;48.414;9.938;2022-12-04T12:58:17;2.60;99.90
698;DHT22;331;48.414;9.938;2022-12-04T13:00:53;2.60;99.90
698;DHT22;331;48.414;9.938;2022-12-04T13:03:38;2.60;99.90
698;DHT22;331;48.414;9.938;2022-12-04T13:06:11;2.70;99.90
698;DHT22;331;48.414;9.938;2022-12-04T13:08:42;2.70;99.90
698;DHT22;331;48.414;9.938;2022-12-04T13:11:23;2.60;99.90
698;DHT22;331;48.414;9.938;2022-12-04T13:14:12;2.60;99.90
698;DHT22;331;48.414;9.938;2022-12-04T13:16:41;2.70;99.90
698;DHT22;331;48.414;9.938;2022-12-04T13:19:22;2.60;99.90
698;DHT22;331;48.414;9.938;2022-12-04T13:21:53;2.70;99.90
698;DHT22;331;48.414;9.938;2022-12-04T13:27:15;2.60;99.90
698;DHT22;331;48.414;9.938;2022-12-04T13:30:02;2.60;99.90
698;DHT22;331;48.414;9.938;2022-12-04T13:38:29;2.70;99.90
698;DHT22;331;48.414;9.938;2022-12-04T13:41:08;2.70;99.90
698;DHT22;331;48.414;9.938;2022-12-04T13:43:43;2.70;99.90
698;DHT22;331;48.414;9.938;2022-12-04T13:46:22;2.70;99.90
698;DHT22;331;48.414;9.938;2022-12-04T13:49:06;2.70;99.90
698;DHT22;331;48.414;9.938;2022-12-04T13:51:41;2.60;99.90
698;DHT22;331;48.414;9.938;2022-12-04T13:54:25;2.70;99.90
698;DHT22;331;48.414;9.938;2022-12-04T13:56:54;2.70;99.90
698;DHT22;331;48.414;9.938;2022-12-04T13:59:36;2.70;99.90
698;DHT22;331;48.414;9.938;2022-12-04T14:05:09;2.70;99.90
698;DHT22;331;48.414;9.938;2022-12-04T14:07:38;2.70;99.90
698;DHT22;331;48.414;9.938;2022-12-04T14:13:15;2.70;99.90
698;DHT22;331;48.414;9.938;2022-12-04T14:16:01;2.80;99.90
698;DHT22;331;48.414;9.938;2022-12-04T14:18:31;2.70;99.90
698;DHT22;331;48.414;9.938;2022-12-04T14:21:10;2.70;99.90
698;DHT22;331;48.414;9.938;2022-12-04T14:23:41;2.70;99.90
698;DHT22;331;48.414;9.938;2022-12-04T14:31:47;2.80;99.90
698;DHT22;331;48.414;9.938;2022-12-04T14:34:27;2.70;99.90
698;DHT22;331;48.414;9.938;2022-12-04T14:37:24;2.80;99.90
698;DHT22;331;48.414;9.938;2022-12-04T14:40:22;2.80;99.90
698;DHT22;331;48.414;9.938;2022-12-04T14:43:13;2.70;99.90
698;DHT22;331;48.414;9.938;2022-12-04T14:45:49;2.70;99.90
698;DHT22;331;48.414;9.938;2022-12-04T14:48:25;2.70;99.90
698;DHT22;331;48.414;9.938;2022-12-04T14:50:59;2.70;99.90
698;DHT22;331;48.414;9.938;2022-12-04T14:53:40;2.70;99.90
698;DHT22;331;48.414;9.938;2022-12-04T14:56:23;2.70;99.90
698;DHT22;331;48.414;9.938;2022-12-04T15:01:36;2.60;99.90
698;DHT22;331;48.414;9.938;2022-12-04T15:04:10;2.80;99.90
698;DHT22;331;48.414;9.938;2022-12-04T15:06:49;2.80;99.90
698;DHT22;331;48.414;9.938;2022-12-04T15:09:17;2.80;99.90
698;DHT22;331;48.414;9.938;2022-12-04T15:12:11;2.80;99.90
698;DHT22;331;48.414;9.938;2022-12-04T15:14:57;2.80;99.90
698;DHT22;331;48.414;9.938;2022-12-04T15:17:28;2.80;99.90
698;DHT22;331;48.414;9.938;2022-12-04T15:20:13;2.80;99.90
698;DHT22;331;48.414;9.938;2022-12-04T15:22:40;2.80;99.90
698;DHT22;331;48.414;9.938;2022-12-04T15:25:18;2.80;99.90
698;DHT22;331;48.414;9.938;2022-12-04T15:28:10;2.80;99.90
698;DHT22;331;48.414;9.938;2022-12-04T15:30:46;2.80;99.90
698;DHT22;331;48.414;9.938;2022-12-04T15:33:17;2.80;99.90
698;DHT22;331;48.414;9.938;2022-12-04T15:39:17;2.70;99.90
698;DHT22;331;48.414;9.938;2022-12-04T15:41:51;2.70;99.90
698;DHT22;331;48.414;9.938;2022-12-04T15:44:28;2.70;99.90
698;DHT22;331;48.414;9.938;2022-12-04T15:46:57;2.70;99.90
698;DHT22;331;48.414;9.938;2022-12-04T15:52:46;2.70;99.90
698;DHT22;331;48.414;9.938;2022-12-04T15:55:36;2.70;99.90
698;DHT22;331;48.414;9.938;2022-12-04T15:58:15;2.80;99.90
698;DHT22;331;48.414;9.938;2022-12-04T16:01:08;2.80;99.90
698;DHT22;331;48.414;9.938;2022-12-04T16:03:47;2.80;99.90
698;DHT22;331;48.414;9.938;2022-12-04T16:09:13;2.80;99.90
698;DHT22;331;48.414;9.938;2022-12-04T16:11:55;2.70;99.90
698;DHT22;331;48.414;9.938;2022-12-04T16:14:32;2.80;99.90
698;DHT22;331;48.414;9.938;2022-12-04T16:17:17;2.70;99.90
698;DHT22;331;48.414;9.938;2022-12-04T16:19:54;2.70;99.90
698;DHT22;331;48.414;9.938;2022-12-04T16:22:42;2.80;99.90
698;DHT22;331;48.414;9.938;2022-12-04T16:25:16;2.70;99.90
698;DHT22;331;48.414;9.938;2022-12-04T16:27:49;2.70;99.90
698;DHT22;331;48.414;9.938;2022-12-04T16:30:16;2.80;99.90
698;DHT22;331;48.414;9.938;2022-12-04T16:32:51;2.80;99.90
698;DHT22;331;48.414;9.938;2022-12-04T16:35:26;2.70;99.90
698;DHT22;331;48.414;9.938;2022-12-04T16:38:03;2.80;99.90
698;DHT22;331;48.414;9.938;2022-12-04T16:40:30;2.80;99.90
698;DHT22;331;48.414;9.938;2022-12-04T16:45:50;2.80;99.90
698;DHT22;331;48.414;9.938;2022-12-04T16:48:24;2.80;99.90
698;DHT22;331;48.414;9.938;2022-12-04T16:50:58;2.80;99.90
698;DHT22;331;48.414;9.938;2022-12-04T16:53:36;2.80;99.90
698;DHT22;331;48.414;9.938;2022-12-04T16:56:12;2.80;99.90
698;DHT22;331;48.414;9.938;2022-12-04T16:58:44;2.80;99.90
698;DHT22;331;48.414;9.938;2022-12-04T17:07:04;2.70;99.90
698;DHT22;331;48.414;9.938;2022-12-04T17:09:44;2.80;99.90
698;DHT22;331;48.414;9.938;2022-12-04T17:12:11;2.80;99.90
698;DHT22;331;48.414;9.938;2022-12-04T17:14:40;2.80;99.90
698;DHT22;331;48.414;9.938;2022-12-04T17:17:07;2.70;99.90
698;DHT22;331;48.414;9.938;2022-12-04T17:19:33;2.70;99.90
698;DHT22;331;48.414;9.938;2022-12-04T17:22:02;2.70;99.90
698;DHT22;331;48.414;9.938;2022-12-04T17:24:29;2.80;99.90
698;DHT22;331;48.414;9.938;2022-12-04T17:26:55;2.80;99.90
698;DHT22;331;48.414;9.938;2022-12-04T17:29:22;2.80;99.90
698;DHT22;331;48.414;9.938;2022-12-04T17:31:52;2.80;99.90
698;DHT22;331;48.414;9.938;2022-12-04T17:34:30;2.80;99.90
698;DHT22;331;48.414;9.938;2022-12-04T17:37:18;2.80;99.90
698;DHT22;331;48.414;9.938;2022-12-04T17:39:48;2.80;99.90
698;DHT22;331;48.414;9.938;2022-12-04T17:42:22;2.80;99.90
698;DHT22;331;48.414;9.938;2022-12-04T17:44:52;2.90;99.90
698;DHT22;331;48.414;9.938;2022-12-04T17:47:28;2.80;99.90
698;DHT22;331;48.414;9.938;2022-12-04T17:50:12;2.80;99.90
698;DHT22;331;48.414;9.938;2022-12-04T17:52:50;2.80;99.90
698;DHT22;331;48.414;9.938;2022-12-04T17:55:17;2.80;99.90
698;DHT22;331;48.414;9.938;2022-12-04T17:57:54;2.80;99.90
698;DHT22;331;48.414;9.938;2022-12-04T18:00:23;2.90;99.90
698;DHT22;331;48.414;9.938;2022-12-04T18:02:59;2.80;99.90
698;DHT22;331;48.414;9.938;2022-12-04T18:05:35;2.80;99.90
698;DHT22;331;48.414;9.938;2022-12-04T18:08:10;2.80;99.90
698;DHT22;331;48.414;9.938;2022-12-04T18:10:37;2.70;99.90
698;DHT22;331;48.414;9.938;2022-12-04T18:13:04;2.90;99.90
698;DHT22;331;48.414;9.938;2022-12-04T18:15:37;2.90;99.90
698;DHT22;331;48.414;9.938;2022-12-04T18:18:06;2.80;99.90
698;DHT22;331;48.414;9.938;2022-12-04T18:21:00;2.90;99.90
698;DHT22;331;48.414;9.938;2022-12-04T18:23:37;2.90;99.90
698;DHT22;331;48.414;9.938;2022-12-04T18:26:13;2.90;99.90
698;DHT22;331;48.414;9.938;2022-12-04T18:28:47;2.90;99.90
698;DHT22;331;48.414;9.938;2022-12-04T18:31:18;2.90;99.90
698;DHT22;331;48.414;9.938;2022-12-04T18:33:49;2.90;99.90
698;DHT22;331;48.414;9.938;2022-12-04T18:36:17;2.90;99.90
698;DHT22;331;48.414;9.938;2022-12-04T18:39:17;2.90;99.90
698;DHT22;331;48.414;9.938;2022-12-04T18:41:44;3.00;99.90
698;DHT22;331;48.414;9.938;2022-12-04T18:44:12;2.90;99.90
698;DHT22;331;48.414;9.938;2022-12-04T18:46:39;2.90;99.90
698;DHT22;331;48.414;9.938;2022-12-04T18:49:21;2.90;99.90